ブリスベン の空港の天気 - METARとTAF

ブリスベン空港 ( YBBN / BNE ) - オーストラリア クイーンズランド州ブリスベン
飛行場実況気象(Metar)
観測時間04/22 02:30 AEST (04/21 16:30 UTC)
風向・風速南 3m/s
視程10km以上
天気現象
少しの雲 雲底高度 1010m
全天の8割程度の雲 雲底高度 1980m
気温19℃
湿度94%
気圧1019hPa
METARYBBN 211630Z 19005KT 9999 FEW033 BKN065 19/18 Q1019 NOSIG
過去の天気等 Google飛行場航空写真 Wunderground天気予報

過去48時間のMETAR

飛行場予報(TAF)
発表時間: 4/21 21:05 AEST (4/21 11:05 UTC)
予報対象時間: 21日22時 AEST ~ 23日4時 AEST
風向・風速南 4m/s
視程10km以上
天気現象弱いしゅう雨
全天の4割程度の雲 雲底高度 610m
全天の4割程度の雲 雲底高度 1220m
22日10時 AEST から
風向・風速東南東 7m/s
視程10km以上
天気現象弱いしゅう雨
全天の4割程度の雲 雲底高度 760m
全天の4割程度の雲 雲底高度 1220m
22日20時 AEST から
風向・風速南 4m/s
視程10km以上
天気現象弱いしゅう雨
少しの雲 雲底高度 460m
全天の4割程度の雲 雲底高度 760m
全天の4割程度の雲 雲底高度 1220m
TAF YBBN 211105Z 2112/2218 17008KT 9999 -SHRA SCT020 SCT040
FM220000 12014KT 9999 -SHRA SCT025 SCT040
FM221000 17008KT 9999 -SHRA FEW015 SCT025 SCT040